Time;durP1;ratioP1;P1;durP2;ratioP2;P2;SDS_P1;SDS_P2;PMS_P1;PMS_P2;Temp;Humidity;BMP_temperature;BMP_pressure;BME280_temperature;BME280_humidity;BME280_pressure;Samples;Min_cycle;Max_cycle;Signal;HPM_P1;HPM_P2
2021/05/20 00:02:24;;;;;;;21.82;8.68;;;;;;;15.03;100.00;99888.55;1862221;77;20928;-80
2021/05/20 00:04:50;;;;;;;19.77;9.20;;;;;;;15.01;100.00;99897.02;1833586;77;21024;-80
2021/05/20 00:07:17;;;;;;;22.20;9.25;;;;;;;15.03;100.00;99898.05;1848524;77;20989;-80
2021/05/20 00:09:43;;;;;;;18.05;8.05;;;;;;;15.01;100.00;99899.73;1839420;77;21444;-80
2021/05/20 00:12:10;;;;;;;17.55;7.67;;;;;;;14.99;100.00;99904.09;1839438;78;20892;-80
2021/05/20 00:14:36;;;;;;;11.35;5.62;;;;;;;15.01;100.00;99902.45;1839551;78;21050;-80
2021/05/20 00:17:02;;;;;;;10.50;5.22;;;;;;;14.98;100.00;99907.13;1839451;78;21050;-80
2021/05/20 00:19:28;;;;;;;7.90;4.60;;;;;;;14.95;100.00;99900.39;1839463;78;20939;-79
2021/05/20 00:21:54;;;;;;;11.20;4.65;;;;;;;14.94;100.00;99898.80;1839138;77;21026;-80
2021/05/20 00:24:20;;;;;;;9.10;5.22;;;;;;;14.90;100.00;99903.22;1845332;77;21018;-80
2021/05/20 00:26:46;;;;;;;15.00;5.97;;;;;;;14.90;100.00;99900.50;1840542;77;21574;-81
2021/05/20 00:29:11;;;;;;;11.63;6.55;;;;;;;14.89;100.00;99900.27;1845523;77;20832;-81
2021/05/20 00:31:37;;;;;;;16.32;6.80;;;;;;;14.87;100.00;99895.69;1845351;77;20923;-81
2021/05/20 00:34:05;;;;;;;18.98;8.05;;;;;;;14.87;100.00;99902.47;1845297;77;21742;-81
2021/05/20 00:36:31;;;;;;;15.78;7.33;;;;;;;14.90;100.00;99907.84;1845211;77;21125;-82
2021/05/20 00:38:58;;;;;;;19.95;6.92;;;;;;;14.83;100.00;99904.77;1845373;77;21030;-81
2021/05/20 00:41:24;;;;;;;10.70;4.70;;;;;;;14.79;100.00;99912.68;1845254;77;21039;-81
2021/05/20 00:43:51;;;;;;;11.12;4.10;;;;;;;14.74;100.00;99911.45;1845370;77;21598;-81
2021/05/20 00:46:16;;;;;;;5.25;2.50;;;;;;;14.68;100.00;99911.32;1845302;77;21062;-81
2021/05/20 00:48:42;;;;;;;6.58;2.60;;;;;;;14.63;100.00;99916.84;1845096;77;21013;-81
2021/05/20 00:51:08;;;;;;;5.25;2.20;;;;;;;14.60;100.00;99923.67;1845308;77;20982;-81
2021/05/20 00:53:34;;;;;;;3.52;2.00;;;;;;;14.52;100.00;99926.53;1845353;77;22287;-81
2021/05/20 00:56:01;;;;;;;3.87;1.90;;;;;;;14.47;100.00;99931.22;1845419;77;21554;-81
2021/05/20 00:58:27;;;;;;;9.20;2.62;;;;;;;14.46;100.00;99929.06;1845417;77;21104;-81
2021/05/20 01:00:54;;;;;;;3.45;2.60;;;;;;;14.44;100.00;99929.11;1845480;77;21006;-81
2021/05/20 01:03:23;;;;;;;4.45;2.95;;;;;;;14.42;100.00;99929.98;1845197;77;21058;-80
2021/05/20 01:05:53;;;;;;;8.58;3.33;;;;;;;14.41;100.00;99929.19;1816828;78;21103;-82
2021/05/20 01:08:21;;;;;;;6.62;3.87;;;;;;;14.40;100.00;99931.63;1816739;79;21017;-83
2021/05/20 01:10:48;;;;;;;8.13;4.22;;;;;;;14.39;100.00;99934.09;1808367;79;21048;-83
2021/05/20 01:13:14;;;;;;;8.65;4.55;;;;;;;14.35;100.00;99933.08;1816859;79;21033;-83
2021/05/20 01:15:41;;;;;;;10.38;4.80;;;;;;;14.34;100.00;99935.55;1816818;79;21552;-83
2021/05/20 01:18:07;;;;;;;7.10;2.80;;;;;;;14.35;100.00;99934.99;1816796;79;21032;-82
2021/05/20 01:20:40;;;;;;;5.12;2.50;;;;;;;14.33;100.00;99931.80;1817050;78;20968;-83
2021/05/20 01:23:19;;;;;;;3.10;1.80;;;;;;;14.30;100.00;99933.20;1810537;79;21108;-83
2021/05/20 01:25:49;;;;;;;4.85;1.57;;;;;;;14.26;100.00;99937.04;1756307;81;21100;-83
2021/05/20 01:28:22;;;;;;;4.22;1.60;;;;;;;14.25;100.00;99944.93;1756250;80;21064;-82
2021/05/20 01:30:50;;;;;;;5.03;1.50;;;;;;;14.18;100.00;99943.18;1674641;85;21135;-82
2021/05/20 01:33:16;;;;;;;1.90;1.00;;;;;;;14.16;100.00;99948.09;1641800;87;20993;-82
2021/05/20 01:35:46;;;;;;;1.98;1.17;;;;;;;14.13;100.00;99947.89;1641883;87;21164;-82
2021/05/20 01:40:56;;;;;;;4.58;1.00;;;;;;;14.10;100.00;99954.70;1623888;87;21000;-83
2021/05/20 01:43:22;;;;;;;2.47;1.00;;;;;;;14.07;100.00;99956.09;1623754;87;21050;-82
2021/05/20 01:45:53;;;;;;;1.72;0.50;;;;;;;14.06;100.00;99957.77;1623943;88;21023;-82
2021/05/20 01:48:17;;;;;;;3.27;0.60;;;;;;;14.00;100.00;99965.70;1620467;88;21082;-82
2021/05/20 01:50:43;;;;;;;3.42;0.98;;;;;;;13.96;100.00;99958.73;1623820;88;21055;-83
2021/05/20 01:53:09;;;;;;;1.75;0.75;;;;;;;13.95;100.00;99962.55;1623901;88;21824;-83
2021/05/20 01:55:35;;;;;;;1.02;0.70;;;;;;;13.94;100.00;99961.48;1623716;88;21094;-82
2021/05/20 01:58:01;;;;;;;2.67;0.50;;;;;;;13.88;100.00;99957.26;1637710;87;21020;-82
2021/05/20 02:00:27;;;;;;;1.20;0.60;;;;;;;13.83;100.00;99955.45;1623932;88;21076;-82
2021/05/20 02:02:53;;;;;;;1.62;0.50;;;;;;;13.79;100.00;99957.93;1636731;86;21902;-82
2021/05/20 02:05:19;;;;;;;0.80;0.50;;;;;;;13.75;100.00;99966.41;1647317;87;20924;-82
2021/05/20 02:07:45;;;;;;;0.25;0.20;;;;;;;13.75;100.00;99960.98;1647295;85;21067;-82
2021/05/20 02:10:11;;;;;;;0.55;0.50;;;;;;;13.73;100.00;99959.12;1647114;87;21019;-82
2021/05/20 02:12:37;;;;;;;0.90;0.57;;;;;;;13.71;100.00;99970.82;1647070;87;21142;-82
2021/05/20 02:15:05;;;;;;;3.20;0.50;;;;;;;13.70;100.00;99960.27;1647282;87;20983;-82
2021/05/20 02:17:31;;;;;;;3.10;0.57;;;;;;;13.63;100.00;99968.22;1647213;87;21059;-82
2021/05/20 02:19:58;;;;;;;4.62;0.70;;;;;;;13.55;100.00;99967.53;1647300;87;21099;-81
2021/05/20 02:22:24;;;;;;;4.15;0.70;;;;;;;13.53;100.00;99974.34;1676370;84;21104;-82
2021/05/20 02:24:50;;;;;;;0.98;0.55;;;;;;;13.50;100.00;99974.92;1705346;83;21216;-81
2021/05/20 02:27:15;;;;;;;1.75;0.80;;;;;;;13.52;100.00;99980.86;1708322;83;20858;-81
2021/05/20 02:29:41;;;;;;;1.87;0.80;;;;;;;13.49;100.00;99978.19;1717733;83;21000;-82
2021/05/20 02:32:07;;;;;;;1.40;0.90;;;;;;;13.52;100.00;99988.98;1844414;77;20860;-82
2021/05/20 02:34:33;;;;;;;3.20;0.98;;;;;;;13.54;100.00;99985.44;1848333;77;20888;-82
2021/05/20 02:36:59;;;;;;;0.50;0.50;;;;;;;13.54;100.00;99994.36;1848318;77;21717;-82
2021/05/20 02:39:24;;;;;;;2.55;0.60;;;;;;;13.56;100.00;99985.41;1848143;77;20852;-82
2021/05/20 02:41:50;;;;;;;0.60;0.60;;;;;;;13.59;100.00;99982.11;1848157;77;20891;-82
2021/05/20 02:44:16;;;;;;;1.15;0.50;;;;;;;13.59;100.00;99984.81;1848234;76;20911;-82
2021/05/20 02:46:42;;;;;;;1.20;0.70;;;;;;;13.60;100.00;99985.61;1848250;77;20879;-82
2021/05/20 02:49:08;;;;;;;8.93;2.02;;;;;;;13.58;100.00;99983.19;1848127;77;21542;-81
2021/05/20 02:51:34;;;;;;;3.20;1.60;;;;;;;13.58;100.00;99984.54;1848195;77;21007;-82
2021/05/20 02:54:00;;;;;;;7.62;3.10;;;;;;;13.62;100.00;99996.41;1848109;77;21481;-82
2021/05/20 02:56:25;;;;;;;8.48;3.77;;;;;;;13.66;100.00;99995.27;1822526;77;20939;-82
2021/05/20 02:58:51;;;;;;;11.38;4.03;;;;;;;13.71;100.00;99996.55;1822650;77;20962;-82
2021/05/20 03:01:21;;;;;;;12.60;3.67;;;;;;;13.75;100.00;99989.98;1848182;77;21129;-82
2021/05/20 03:03:45;;;;;;;10.40;3.87;;;;;;;13.77;100.00;99995.36;1844091;77;21098;-82
2021/05/20 03:06:11;;;;;;;5.75;2.80;;;;;;;13.80;100.00;99993.97;1848268;77;21006;-82
2021/05/20 03:08:37;;;;;;;7.28;3.08;;;;;;;13.81;100.00;99998.27;1848157;77;20947;-82
2021/05/20 03:11:02;;;;;;;7.17;3.40;;;;;;;13.83;100.00;100000.94;1848824;77;20876;-81
2021/05/20 03:13:28;;;;;;;11.93;3.60;;;;;;;13.90;100.00;100002.47;1848264;77;21031;-81
2021/05/20 03:15:54;;;;;;;7.95;3.27;;;;;;;13.93;100.00;100001.88;1848166;76;20915;-82
2021/05/20 03:18:20;;;;;;;7.97;3.17;;;;;;;13.97;100.00;100001.00;1848138;77;20883;-81
2021/05/20 03:20:46;;;;;;;10.45;3.55;;;;;;;14.03;100.00;100000.33;1848257;77;21046;-81
2021/05/20 03:23:12;;;;;;;5.55;2.95;;;;;;;14.09;100.00;100001.88;1846601;77;20931;-82
2021/05/20 03:25:38;;;;;;;8.50;2.70;;;;;;;14.15;100.00;100004.75;1839497;78;21636;-81
2021/05/20 03:28:04;;;;;;;14.65;3.37;;;;;;;14.17;100.00;100007.14;1839306;78;20947;-81
2021/05/20 03:30:30;;;;;;;11.20;3.00;;;;;;;14.20;100.00;100003.28;1809087;78;20954;-81
2021/05/20 03:32:56;;;;;;;11.60;3.83;;;;;;;14.25;100.00;100020.02;1839331;78;21602;-81
2021/05/20 03:35:22;;;;;;;9.25;3.40;;;;;;;14.30;100.00;100009.09;1839388;78;20888;-81
2021/05/20 03:37:47;;;;;;;9.43;3.60;;;;;;;14.38;100.00;100013.80;1839153;78;21481;-81
2021/05/20 03:40:14;;;;;;;8.00;2.95;;;;;;;14.41;100.00;100009.69;1839306;78;21613;-81
2021/05/20 03:42:40;;;;;;;5.55;2.80;;;;;;;14.43;100.00;100006.14;1839132;78;21050;-81
2021/05/20 03:45:07;;;;;;;6.05;2.75;;;;;;;14.42;100.00;100014.83;1839567;78;21035;-81
2021/05/20 03:47:33;;;;;;;6.80;2.80;;;;;;;14.40;100.00;100007.53;1839488;78;21535;-81
2021/05/20 03:49:59;;;;;;;7.50;2.87;;;;;;;14.57;100.00;100005.63;1839501;77;21066;-80
2021/05/20 03:52:25;;;;;;;12.00;3.08;;;;;;;14.80;100.00;100013.87;1839433;78;20986;-80
2021/05/20 03:54:51;;;;;;;8.53;2.98;;;;;;;14.93;100.00;100011.13;1839608;77;20892;-81
2021/05/20 03:57:17;;;;;;;8.80;3.12;;;;;;;15.04;100.00;100012.30;1839633;78;21086;-80
2021/05/20 03:59:43;;;;;;;11.57;2.90;;;;;;;15.09;100.00;100011.63;1839501;78;20872;-81
2021/05/20 04:02:09;;;;;;;6.83;2.58;;;;;;;15.25;100.00;100010.73;1839437;78;21752;-80
2021/05/20 04:04:35;;;;;;;6.17;2.62;;;;;;;15.39;100.00;100014.22;1839493;77;20840;-81
2021/05/20 04:07:01;;;;;;;7.12;2.25;;;;;;;15.40;100.00;100019.89;1839445;78;20975;-81
2021/05/20 04:09:28;;;;;;;5.90;2.00;;;;;;;15.41;100.00;100020.16;1839576;78;21047;-81
2021/05/20 04:11:54;;;;;;;6.75;1.90;;;;;;;15.42;100.00;100024.47;1839534;78;21015;-81
2021/05/20 04:14:19;;;;;;;2.20;1.50;;;;;;;15.38;100.00;100027.56;1839504;77;21120;-80
2021/05/20 04:16:45;;;;;;;4.53;1.70;;;;;;;15.35;100.00;100030.89;1839214;78;20923;-80
2021/05/20 04:19:13;;;;;;;5.20;1.75;;;;;;;15.31;100.00;100035.86;1839215;78;20967;-80
2021/05/20 04:21:39;;;;;;;2.62;1.62;;;;;;;15.27;100.00;100038.95;1839385;78;21090;-80
2021/05/20 04:24:06;;;;;;;11.28;2.30;;;;;;;15.29;100.00;100028.56;1836291;76;21605;-80
2021/05/20 04:26:32;;;;;;;3.83;1.90;;;;;;;15.30;100.00;100039.70;1831391;77;21869;-80
2021/05/20 04:28:57;;;;;;;3.80;2.20;;;;;;;15.31;100.00;100049.44;1831397;77;20859;-80
2021/05/20 04:31:23;;;;;;;4.22;2.10;;;;;;;15.30;100.00;100050.55;1831304;77;20852;-80
2021/05/20 04:33:49;;;;;;;5.97;2.10;;;;;;;15.36;100.00;100058.27;1831116;78;21110;-80
2021/05/20 04:36:15;;;;;;;4.58;2.00;;;;;;;15.50;100.00;100054.71;1815216;78;20950;-80
2021/05/20 04:38:41;;;;;;;3.50;1.77;;;;;;;15.58;100.00;100066.22;1831324;77;21097;-80
2021/05/20 04:41:07;;;;;;;4.87;1.40;;;;;;;15.59;100.00;100066.48;1831268;77;21050;-80
2021/05/20 04:43:33;;;;;;;2.70;1.20;;;;;;;15.53;100.00;100076.66;1815145;78;21034;-80
2021/05/20 04:46:00;;;;;;;5.22;1.30;;;;;;;15.48;100.00;100080.03;1815242;78;21077;-80
2021/05/20 04:48:26;;;;;;;7.62;1.45;;;;;;;15.41;100.00;100084.50;1831118;77;21539;-80
2021/05/20 04:50:53;;;;;;;4.25;1.62;;;;;;;15.39;100.00;100086.73;1831343;77;21092;-80
2021/05/20 04:53:19;;;;;;;3.55;1.65;;;;;;;15.35;100.00;100091.15;1831161;77;21054;-80
2021/05/20 04:55:45;;;;;;;1.90;1.15;;;;;;;15.32;100.00;100093.91;1831388;78;21502;-80
2021/05/20 04:58:11;;;;;;;2.47;1.40;;;;;;;15.24;100.00;100099.28;1831269;77;21042;-80
2021/05/20 05:00:37;;;;;;;4.47;1.82;;;;;;;15.23;100.00;100097.09;1815317;78;21698;-80
2021/05/20 05:03:03;;;;;;;7.22;1.85;;;;;;;15.31;100.00;100085.53;1831147;77;21117;-81
2021/05/20 05:05:29;;;;;;;3.22;1.67;;;;;;;15.37;100.00;100098.45;1831314;77;21057;-80
2021/05/20 05:07:54;;;;;;;3.35;1.85;;;;;;;15.52;100.00;100096.75;1830689;77;20900;-80
2021/05/20 05:10:20;;;;;;;3.80;1.50;;;;;;;15.70;100.00;100092.88;1830139;77;20835;-80
2021/05/20 05:12:46;;;;;;;1.42;1.22;;;;;;;16.12;100.00;100091.63;1831309;78;20969;-80
2021/05/20 05:15:12;;;;;;;3.80;1.60;;;;;;;16.48;100.00;100095.60;1831345;77;20969;-80
2021/05/20 05:17:38;;;;;;;4.97;1.95;;;;;;;16.95;100.00;100087.85;1831091;78;21034;-80
2021/05/20 05:20:07;;;;;;;3.83;1.55;;;;;;;16.95;100.00;100087.85;1831208;78;21080;-80
2021/05/20 05:22:33;;;;;;;1.90;1.10;;;;;;;17.12;100.00;100096.64;1831295;77;21065;-80
2021/05/20 05:24:59;;;;;;;2.20;1.52;;;;;;;17.29;100.00;100097.79;1831005;77;20964;-80
2021/05/20 05:27:25;;;;;;;3.47;1.50;;;;;;;17.97;100.00;100103.12;1831059;78;21806;-80
2021/05/20 05:29:51;;;;;;;3.52;1.67;;;;;;;18.30;100.00;100097.16;1831291;77;20940;-80
2021/05/20 05:32:18;;;;;;;11.93;1.35;;;;;;;18.39;100.00;100097.36;1831022;77;21050;-81
2021/05/20 05:34:44;;;;;;;2.80;1.02;;;;;;;18.79;100.00;100097.09;1831120;77;21034;-80
2021/05/20 05:37:10;;;;;;;1.60;0.82;;;;;;;19.56;100.00;100097.58;1815415;78;20875;-81
2021/05/20 05:39:36;;;;;;;3.47;1.00;;;;;;;20.13;100.00;100090.95;1815161;78;21832;-80
2021/05/20 05:42:01;;;;;;;2.20;1.10;;;;;;;20.32;100.00;100091.80;1831153;77;20860;-80
2021/05/20 05:44:27;;;;;;;2.12;1.05;;;;;;;20.25;100.00;100090.20;1831163;78;20872;-80
2021/05/20 05:46:53;;;;;;;1.32;0.75;;;;;;;20.03;100.00;100098.22;1831060;77;20930;-80
2021/05/20 05:49:27;;;;;;;2.67;1.20;;;;;;;19.82;100.00;100093.31;1831469;77;20875;-80
2021/05/20 05:51:54;;;;;;;2.12;1.07;;;;;;;19.81;100.00;100106.20;1828679;77;21131;-80
2021/05/20 05:54:18;;;;;;;4.45;1.37;;;;;;;19.96;100.00;100103.42;1828555;78;21068;-80
2021/05/20 05:56:44;;;;;;;3.90;1.20;;;;;;;19.92;100.00;100110.12;1831260;77;20856;-80
2021/05/20 05:59:10;;;;;;;5.78;1.70;;;;;;;20.08;100.00;100104.83;1831071;77;20985;-80
2021/05/20 06:01:39;;;;;;;1.47;1.20;;;;;;;20.71;100.00;100097.08;1828417;77;21058;-81
2021/05/20 06:04:08;;;;;;;1.80;1.10;;;;;;;20.96;100.00;100097.89;1831285;76;21143;-80
2021/05/20 06:06:36;;;;;;;1.10;0.90;;;;;;;20.83;100.00;100103.36;1831145;77;21026;-80
2021/05/20 06:09:05;;;;;;;2.52;1.15;;;;;;;21.21;100.00;100100.86;1815147;78;21022;-80
2021/05/20 06:11:33;;;;;;;6.03;1.45;;;;;;;22.65;100.00;100094.23;1831224;77;21055;-80
2021/05/20 06:14:05;;;;;;;3.37;1.42;;;;;;;23.56;100.00;100104.85;1831064;77;21010;-80
2021/05/20 06:16:34;;;;;;;5.90;2.42;;;;;;;24.36;100.00;100095.67;1831251;77;20947;-80
2021/05/20 06:19:09;;;;;;;3.42;1.92;;;;;;;24.58;87.35;100106.52;1830187;77;21058;-80
2021/05/20 06:21:35;;;;;;;4.90;2.40;;;;;;;24.41;86.16;100103.06;1830802;77;21570;-80
2021/05/20 06:24:02;;;;;;;5.87;2.72;;;;;;;24.40;86.70;100106.95;1831394;76;21054;-80
2021/05/20 06:26:31;;;;;;;4.33;1.50;;;;;;;24.23;72.57;100108.79;1839189;78;21038;-80
2021/05/20 06:28:58;;;;;;;5.10;1.60;;;;;;;24.21;83.89;100117.43;1808977;78;21247;-80
2021/05/20 06:31:24;;;;;;;3.58;1.90;;;;;;;24.27;79.92;100112.42;1839144;78;21007;-80
2021/05/20 06:33:52;;;;;;;6.00;1.52;;;;;;;24.63;76.30;100117.24;1808538;78;21046;-80
2021/05/20 06:36:19;;;;;;;2.98;1.47;;;;;;;24.14;69.68;100112.35;1812692;78;21028;-80
2021/05/20 06:38:45;;;;;;;1.62;1.25;;;;;;;24.10;83.03;100115.04;1813411;79;21006;-80
2021/05/20 06:41:11;;;;;;;4.95;1.40;;;;;;;25.21;70.67;100127.27;1785567;79;21052;-79
2021/05/20 06:43:38;;;;;;;3.80;1.60;;;;;;;26.26;69.99;100127.72;1813559;79;20945;-80
2021/05/20 06:46:08;;;;;;;2.52;1.25;;;;;;;26.85;59.02;100137.61;1833558;77;21037;-80
2021/05/20 06:48:35;;;;;;;2.50;1.02;;;;;;;27.16;60.42;100138.30;1835292;77;21140;-80
2021/05/20 06:51:03;;;;;;;3.65;1.10;;;;;;;26.53;55.57;100145.59;1830428;77;21078;-80
2021/05/20 06:53:31;;;;;;;4.47;1.32;;;;;;;25.88;57.68;100144.02;1805943;77;21061;-79
2021/05/20 06:56:01;;;;;;;3.02;1.25;;;;;;;25.81;60.09;100139.77;1813547;79;21021;-80
2021/05/20 07:01:12;;;;;;;1.85;0.98;;;;;;;26.92;61.51;100135.52;1819600;77;20980;-80
2021/05/20 07:03:38;;;;;;;1.82;0.90;;;;;;;27.98;56.35;100136.64;1823055;77;20971;-80
2021/05/20 07:06:05;;;;;;;4.25;1.20;;;;;;;27.96;55.12;100140.39;1813413;78;21107;-79
2021/05/20 07:08:33;;;;;;;3.80;1.20;;;;;;;28.81;55.37;100142.61;1791478;79;21012;-80
2021/05/20 07:10:59;;;;;;;3.50;1.12;;;;;;;29.77;48.96;100142.37;1797812;79;21033;-80
2021/05/20 07:13:25;;;;;;;4.15;1.15;;;;;;;30.83;50.61;100150.59;1800515;79;20933;-81
2021/05/20 07:15:51;;;;;;;4.05;1.27;;;;;;;30.48;46.28;100153.78;1801895;79;21045;-80
2021/05/20 07:18:17;;;;;;;3.95;1.30;;;;;;;29.86;44.09;100151.85;1795287;79;21092;-79
2021/05/20 07:20:44;;;;;;;5.08;1.62;;;;;;;30.16;43.97;100154.70;1806675;79;22177;-79
2021/05/20 07:23:12;;;;;;;1.72;1.10;;;;;;;30.37;46.81;100159.39;1809329;79;20993;-79
2021/05/20 07:25:38;;;;;;;4.08;2.15;;;;;;;30.63;45.31;100157.27;1783502;79;21053;-79
2021/05/20 07:28:05;;;;;;;4.92;1.70;;;;;;;30.88;43.69;100156.49;1808738;79;20933;-79
2021/05/20 07:30:32;;;;;;;3.00;1.30;;;;;;;31.07;44.60;100154.38;1782078;79;21750;-79
2021/05/20 07:32:58;;;;;;;3.33;1.47;;;;;;;30.44;43.79;100152.98;1823343;77;21114;-79
2021/05/20 07:35:24;;;;;;;7.50;1.32;;;;;;;30.76;44.72;100159.13;1845288;77;21547;-82
2021/05/20 07:37:50;;;;;;;2.10;1.20;;;;;;;31.42;42.81;100161.64;1845522;77;21566;-78
2021/05/20 07:40:18;;;;;;;2.65;1.50;;;;;;;33.14;41.95;100167.17;1845664;77;20974;-80
2021/05/20 07:42:46;;;;;;;1.72;1.12;;;;;;;33.14;41.95;100167.17;1845366;77;21574;-79
2021/05/20 07:45:14;;;;;;;4.67;1.57;;;;;;;33.22;38.55;100172.83;1840284;77;21028;-79
2021/05/20 07:47:48;;;;;;;2.45;1.30;;;;;;;33.50;38.76;100172.73;1845477;77;21019;-79
2021/05/20 07:50:14;;;;;;;1.70;1.30;;;;;;;32.67;38.02;100173.30;1845291;77;21031;-79
2021/05/20 07:52:40;;;;;;;3.55;1.30;;;;;;;32.72;38.29;100174.22;1845553;77;21511;-79
2021/05/20 07:55:08;;;;;;;4.22;1.57;;;;;;;32.74;37.66;100175.38;1843627;77;21046;-79
2021/05/20 07:57:34;;;;;;;4.10;1.60;;;;;;;32.01;37.85;100187.11;1845402;77;21002;-79
2021/05/20 08:00:00;;;;;;;2.83;1.05;;;;;;;31.30;39.02;100187.20;1819324;77;20964;-79
2021/05/20 08:05:03;;;;;;;3.60;1.40;;;;;;;29.90;39.20;100188.55;1812247;78;20946;-82
2021/05/20 08:10:26;;;;;;;6.87;2.10;;;;;;;28.15;41.40;100189.95;1845369;77;21581;-80
2021/05/20 08:12:34;;;;;;;7.78;1.77;;;;;;;28.01;41.11;100183.75;1831835;77;21057;-80
2021/05/20 08:15:00;;;;;;;5.35;2.00;;;;;;;28.12;42.64;100180.22;1818796;77;20936;-80
2021/05/20 08:17:26;;;;;;;2.83;1.32;;;;;;;29.17;40.47;100175.34;1812951;77;21006;-79
2021/05/20 08:19:52;;;;;;;4.25;1.75;;;;;;;29.65;39.75;100163.83;1812092;78;21112;-80
2021/05/20 08:22:18;;;;;;;4.58;1.62;;;;;;;30.05;40.57;100163.08;1787165;79;20950;-80
2021/05/20 08:24:44;;;;;;;4.10;1.37;;;;;;;30.62;36.16;100168.17;1787168;79;20954;-80
2021/05/20 08:27:11;;;;;;;4.75;1.20;;;;;;;31.33;35.47;100160.70;1785060;79;21093;-80
2021/05/20 08:29:39;;;;;;;4.22;1.10;;;;;;;32.84;34.76;100155.48;1812195;78;21582;-80
2021/05/20 08:32:06;;;;;;;3.70;1.35;;;;;;;32.76;33.87;100153.39;1812129;78;21590;-80
2021/05/20 08:34:32;;;;;;;5.20;1.22;;;;;;;32.39;33.97;100164.10;1812079;78;21034;-80
2021/05/20 08:37:00;;;;;;;6.00;1.40;;;;;;;33.35;33.51;100155.45;1812260;78;21015;-80
2021/05/20 08:39:26;;;;;;;8.00;1.60;;;;;;;33.74;32.10;100150.55;1811953;78;21011;-80
2021/05/20 08:41:53;;;;;;;2.77;1.60;;;;;;;33.29;33.19;100163.52;1812206;78;21087;-81
2021/05/20 08:44:21;;;;;;;2.50;1.47;;;;;;;32.92;33.07;100164.55;1812302;78;21171;-81
2021/05/20 08:46:49;;;;;;;4.10;1.25;;;;;;;32.87;33.42;100159.43;1808017;78;21045;-81
2021/05/20 08:49:15;;;;;;;3.35;0.90;;;;;;;32.09;31.75;100164.30;1812190;78;21042;-81
2021/05/20 08:51:43;;;;;;;4.67;1.20;;;;;;;32.42;32.42;100169.45;1812227;78;20997;-81
2021/05/20 08:54:10;;;;;;;3.75;1.07;;;;;;;32.72;32.44;100166.63;1811721;78;21539;-81
2021/05/20 08:56:36;;;;;;;1.60;0.72;;;;;;;32.43;35.46;100173.20;1812170;78;21030;-82
2021/05/20 08:59:02;;;;;;;1.92;1.10;;;;;;;32.07;32.50;100173.67;1780857;79;21058;-82
2021/05/20 09:01:40;;;;;;;1.92;0.90;;;;;;;31.81;33.06;100178.54;1812260;78;21078;-82
2021/05/20 09:04:08;;;;;;;4.03;1.12;;;;;;;32.20;33.45;100166.93;1812100;78;21026;-81
2021/05/20 09:06:43;;;;;;;8.30;1.17;;;;;;;30.91;32.52;100179.93;1785303;78;21035;-81
2021/05/20 09:11:56;;;;;;;1.95;0.80;;;;;;;31.48;34.80;100177.31;1625696;88;21012;-81
2021/05/20 09:14:41;;;;;;;2.42;0.95;;;;;;;32.39;34.10;100189.81;1625649;88;21068;-82
2021/05/20 09:17:16;;;;;;;1.57;0.98;;;;;;;31.94;32.69;100183.78;1575559;91;21188;-82
2021/05/20 09:19:53;;;;;;;3.40;0.90;;;;;;;31.70;34.27;100183.44;1575789;91;21089;-82
2021/05/20 09:22:19;;;;;;;2.00;0.93;;;;;;;32.32;34.00;100185.11;1577631;90;21160;-81
2021/05/20 09:24:51;;;;;;;2.10;1.10;;;;;;;31.67;33.39;100193.41;1577601;90;21661;-82
2021/05/20 09:27:42;;;;;;;2.67;1.20;;;;;;;31.10;34.76;100189.14;1568114;91;21645;-82
2021/05/20 09:30:24;;;;;;;3.00;0.90;;;;;;;30.98;33.90;100191.81;1567939;91;21685;-82
2021/05/20 09:33:04;;;;;;;2.23;1.30;;;;;;;29.91;32.78;100199.86;1568344;91;21062;-82
2021/05/20 09:35:33;;;;;;;6.80;2.05;;;;;;;29.87;34.00;100208.20;1526806;92;21114;-82
2021/05/20 09:38:06;;;;;;;3.45;1.55;;;;;;;29.56;35.62;100205.08;1526952;92;21152;-82
2021/05/20 09:40:39;;;;;;;5.42;1.75;;;;;;;29.42;36.15;100201.72;1527177;93;21085;-82
2021/05/20 09:43:24;;;;;;;3.87;1.25;;;;;;;29.13;35.70;100199.53;1527105;92;21098;-81
2021/05/20 09:45:55;;;;;;;3.25;1.50;;;;;;;28.77;34.73;100207.01;1538350;93;21155;-83
2021/05/20 09:48:26;;;;;;;2.72;1.20;;;;;;;28.65;35.20;100208.73;1538288;93;21977;-82
2021/05/20 09:50:55;;;;;;;6.80;1.40;;;;;;;28.58;37.52;100203.19;1538197;93;21139;-82
2021/05/20 09:53:25;;;;;;;5.67;1.57;;;;;;;28.82;37.95;100216.30;1538291;92;21675;-82
2021/05/20 09:55:57;;;;;;;2.40;1.37;;;;;;;28.59;37.27;100206.15;1518898;93;21071;-83
2021/05/20 09:58:28;;;;;;;4.67;1.30;;;;;;;28.64;36.75;100207.16;1517555;94;21135;-83
2021/05/20 10:00:56;;;;;;;5.35;1.47;;;;;;;28.05;36.79;100219.18;1397520;100;21224;-83
2021/05/20 10:03:24;;;;;;;5.83;1.17;;;;;;;27.92;37.72;100231.00;1396477;102;21150;-82
2021/05/20 10:05:53;;;;;;;2.80;1.00;;;;;;;28.01;38.33;100232.23;1438686;96;21219;-82
2021/05/20 10:08:23;;;;;;;3.55;0.98;;;;;;;27.78;38.43;100211.71;1490825;96;21638;-82
2021/05/20 10:10:52;;;;;;;2.50;1.22;;;;;;;27.57;39.17;100237.84;1472290;96;21172;-82
2021/05/20 10:13:25;;;;;;;3.22;1.20;;;;;;;27.84;38.77;100230.14;1474802;97;21161;-82
2021/05/20 10:15:54;;;;;;;3.33;1.40;;;;;;;28.26;38.44;100235.70;1478397;97;21129;-82
2021/05/20 10:18:28;;;;;;;2.87;1.57;;;;;;;27.99;37.31;100236.56;1478455;97;21138;-81
2021/05/20 10:21:01;;;;;;;2.25;1.12;;;;;;;28.14;37.32;100240.99;1494813;95;21107;-80
2021/05/20 10:23:28;;;;;;;7.97;1.70;;;;;;;28.04;38.19;100229.28;1503279;95;21075;-81
2021/05/20 10:25:56;;;;;;;5.17;1.25;;;;;;;28.33;37.94;100220.51;1510912;92;21803;-81
2021/05/20 10:28:25;;;;;;;3.42;1.15;;;;;;;28.38;38.28;100237.34;1525682;94;21084;-81
2021/05/20 10:30:53;;;;;;;4.08;1.10;;;;;;;28.16;38.98;100239.23;1525669;94;21112;-81
2021/05/20 10:33:26;;;;;;;4.33;1.25;;;;;;;28.31;37.01;100243.06;1525853;94;21107;-81
2021/05/20 10:35:55;;;;;;;2.50;0.95;;;;;;;28.65;36.04;100239.24;1523977;94;21127;-81
2021/05/20 10:38:35;;;;;;;2.08;0.82;;;;;;;28.46;36.62;100234.23;1506517;94;22894;-81
2021/05/20 10:41:25;;;;;;;3.12;1.00;;;;;;;27.51;36.25;100250.46;1525489;94;21104;-82
2021/05/20 10:44:06;;;;;;;2.87;1.10;;;;;;;27.65;35.59;100254.72;1525746;94;21160;-81
2021/05/20 10:47:02;;;;;;;3.52;0.93;;;;;;;27.09;36.94;100241.38;1524912;94;21211;-81
2021/05/20 10:49:53;;;;;;;3.80;1.22;;;;;;;27.22;37.34;100248.03;1525704;94;21176;-82
2021/05/20 10:52:39;;;;;;;3.85;1.40;;;;;;;27.32;37.66;100238.42;1525933;94;21103;-81
2021/05/20 10:55:09;;;;;;;2.50;1.57;;;;;;;27.29;38.05;100240.58;1523076;92;21135;-81
2021/05/20 10:57:56;;;;;;;4.75;1.30;;;;;;;27.75;37.17;100248.45;1538073;89;21513;-81
2021/05/20 11:00:44;;;;;;;1.95;1.30;;;;;;;27.88;38.07;100253.11;1589709;90;21052;-82
2021/05/20 11:03:11;;;;;;;2.27;0.82;;;;;;;27.62;38.23;100243.83;1589676;90;21119;-81
2021/05/20 11:05:46;;;;;;;1.47;0.80;;;;;;;27.85;38.47;100240.85;1589507;90;21149;-82
2021/05/20 11:08:30;;;;;;;3.52;0.88;;;;;;;27.88;38.18;100241.23;1589574;90;21119;-82
2021/05/20 11:10:56;;;;;;;2.22;1.02;;;;;;;27.96;37.36;100238.13;1604253;89;21094;-81
2021/05/20 11:13:45;;;;;;;3.65;0.98;;;;;;;27.63;37.46;100247.38;1600809;89;21118;-81
2021/05/20 11:16:19;;;;;;;2.92;1.00;;;;;;;27.28;38.45;100243.14;1600680;89;21114;-81
2021/05/20 11:18:48;;;;;;;3.20;1.25;;;;;;;27.69;39.05;100241.69;1600898;89;21075;-81
2021/05/20 11:21:15;;;;;;;1.90;1.10;;;;;;;27.62;37.91;100241.06;1590651;89;21561;-82
2021/05/20 11:23:42;;;;;;;3.65;0.93;;;;;;;27.79;38.22;100243.75;1589686;88;21079;-81
2021/05/20 11:26:20;;;;;;;1.12;0.60;;;;;;;27.47;37.92;100246.85;1589428;88;21113;-81
2021/05/20 11:28:54;;;;;;;5.45;0.90;;;;;;;27.55;38.69;100238.22;1589718;89;21088;-81
2021/05/20 11:31:23;;;;;;;5.67;1.10;;;;;;;27.56;37.32;100246.75;1594054;88;21172;-81
2021/05/20 11:36:45;;;;;;;5.33;0.93;;;;;;;27.95;37.93;100240.70;1615049;88;21116;-81
2021/05/20 11:39:15;;;;;;;5.87;0.80;;;;;;;27.78;37.75;100242.17;1615198;87;21586;-81
2021/05/20 11:41:43;;;;;;;1.05;0.88;;;;;;;27.71;39.09;100247.64;1591282;90;21179;-81
2021/05/20 11:44:22;;;;;;;1.80;0.65;;;;;;;27.30;37.69;100241.39;1591381;90;21178;-82